createdAt,value
2023-05-05T00:00:36.534Z,14.97
2023-05-05T00:02:38.193Z,14.94
2023-05-05T00:04:39.992Z,14.89
2023-05-05T00:06:41.526Z,14.92
2023-05-05T00:08:43.044Z,14.87
2023-05-05T00:10:50.309Z,14.83
2023-05-05T00:12:51.870Z,14.78
2023-05-05T00:14:53.412Z,14.78
2023-05-05T00:16:54.949Z,14.77
2023-05-05T00:18:56.516Z,14.77
2023-05-05T00:20:58.114Z,14.74
2023-05-05T00:22:59.650Z,14.72
2023-05-05T00:25:03.100Z,14.72
2023-05-05T00:27:04.753Z,14.71
2023-05-05T00:29:06.316Z,14.66
2023-05-05T00:31:08.502Z,14.82
2023-05-05T00:33:10.131Z,14.73
2023-05-05T00:35:11.700Z,14.73
2023-05-05T00:37:13.220Z,14.69
2023-05-05T00:39:15.102Z,14.71
2023-05-05T00:41:16.722Z,14.78
2023-05-05T00:43:18.214Z,14.70
2023-05-05T00:45:20.605Z,14.70
2023-05-05T00:47:22.157Z,14.70
2023-05-05T00:49:23.760Z,14.67
2023-05-05T00:51:26.327Z,14.72
2023-05-05T00:53:28.467Z,14.71
2023-05-05T00:55:30.775Z,14.73
2023-05-05T00:57:33.770Z,14.77
2023-05-05T00:59:36.820Z,14.79
2023-05-05T01:01:38.398Z,14.78
2023-05-05T01:03:43.889Z,14.74
2023-05-05T01:06:39.915Z,14.75
2023-05-05T01:09:05.980Z,14.87
2023-05-05T01:11:14.452Z,14.77
2023-05-05T01:13:34.247Z,14.76
2023-05-05T01:16:20.534Z,14.74
2023-05-05T01:18:37.048Z,14.74
2023-05-05T01:20:48.164Z,14.70
2023-05-05T01:23:04.171Z,14.69
2023-05-05T01:25:24.111Z,14.70
2023-05-05T01:27:44.807Z,14.71
2023-05-05T01:30:08.747Z,14.76
2023-05-05T01:32:14.364Z,14.78
2023-05-05T01:34:19.249Z,14.81
2023-05-05T01:36:26.046Z,14.76
2023-05-05T01:38:35.037Z,14.75
2023-05-05T01:40:45.124Z,14.85
2023-05-05T01:42:48.425Z,14.87
2023-05-05T01:44:53.076Z,14.86
2023-05-05T01:46:55.607Z,14.88
2023-05-05T01:48:58.768Z,14.90
2023-05-05T01:51:03.275Z,14.92
2023-05-05T01:53:06.531Z,14.92
2023-05-05T01:55:10.398Z,15.02
2023-05-05T01:57:14.307Z,14.93
2023-05-05T01:59:17.215Z,14.96
2023-05-05T02:01:24.523Z,14.93
2023-05-05T02:03:27.650Z,14.94
2023-05-05T02:05:31.741Z,14.92
2023-05-05T02:07:34.617Z,15.10
2023-05-05T02:09:37.051Z,14.99
2023-05-05T02:11:39.510Z,14.93
2023-05-05T02:13:43.009Z,14.91
2023-05-05T02:15:45.354Z,14.89
2023-05-05T02:17:48.840Z,14.92
2023-05-05T02:19:52.487Z,14.91
2023-05-05T02:21:54.131Z,14.89
2023-05-05T02:23:55.872Z,14.87
2023-05-05T02:26:06.126Z,14.88
2023-05-05T02:28:20.329Z,14.86
2023-05-05T02:30:22.838Z,14.82
2023-05-05T02:32:35.143Z,14.76
2023-05-05T02:34:40.216Z,14.70
2023-05-05T02:36:42.957Z,14.68
2023-05-05T02:38:46.459Z,14.62
2023-05-05T02:40:51.177Z,14.61
2023-05-05T02:42:55.567Z,14.51
2023-05-05T02:45:01.373Z,14.45
2023-05-05T02:47:04.891Z,14.39
2023-05-05T02:49:06.545Z,14.35
2023-05-05T02:51:08.060Z,14.30
2023-05-05T02:53:09.645Z,14.26
2023-05-05T02:55:11.798Z,14.23
2023-05-05T02:57:20.004Z,14.17
2023-05-05T02:59:34.332Z,14.12
2023-05-05T03:02:09.847Z,14.05
2023-05-05T03:04:17.521Z,14.00
2023-05-05T03:06:26.745Z,13.97
2023-05-05T03:08:32.520Z,13.95
2023-05-05T03:10:46.275Z,13.90
2023-05-05T03:12:59.924Z,13.84
2023-05-05T03:15:02.625Z,13.81
2023-05-05T03:17:06.193Z,13.86
2023-05-05T03:19:11.357Z,13.88
2023-05-05T03:21:13.396Z,13.78
2023-05-05T03:23:18.276Z,13.77
2023-05-05T03:25:19.861Z,13.70
2023-05-05T03:27:21.517Z,13.68
2023-05-05T03:29:23.165Z,13.68
2023-05-05T03:31:24.977Z,13.62
2023-05-05T03:33:26.637Z,13.63
2023-05-05T03:35:28.276Z,13.67
2023-05-05T03:37:30.054Z,13.72
2023-05-05T03:39:31.674Z,13.75
2023-05-05T03:41:33.204Z,13.76
2023-05-05T03:43:34.766Z,13.79
2023-05-05T03:45:36.344Z,13.77
2023-05-05T03:47:37.945Z,13.76
2023-05-05T03:49:39.532Z,13.77
2023-05-05T03:51:41.408Z,13.75
2023-05-05T03:53:43.097Z,13.76
2023-05-05T03:55:44.647Z,13.74
2023-05-05T03:57:46.171Z,13.76
2023-05-05T03:59:48.044Z,13.72
2023-05-05T04:01:50.058Z,13.73
2023-05-05T04:03:51.843Z,13.74
2023-05-05T04:05:53.476Z,13.72
2023-05-05T04:07:55.071Z,13.70
2023-05-05T04:09:56.694Z,13.74
2023-05-05T04:11:58.355Z,13.75
2023-05-05T04:13:59.900Z,13.74
2023-05-05T04:16:01.659Z,13.73
2023-05-05T04:18:03.357Z,13.73
2023-05-05T04:20:06.490Z,13.73
2023-05-05T04:22:08.162Z,13.72
2023-05-05T04:24:09.971Z,13.73
2023-05-05T04:26:11.705Z,13.74
2023-05-05T04:28:13.332Z,13.71
2023-05-05T04:30:15.030Z,13.73
2023-05-05T04:32:16.848Z,13.73
2023-05-05T04:34:18.454Z,13.77
2023-05-05T04:36:20.047Z,13.82
2023-05-05T04:38:21.921Z,13.88
2023-05-05T04:40:23.560Z,13.96
2023-05-05T04:42:25.888Z,13.99
2023-05-05T04:44:27.389Z,14.02
2023-05-05T04:46:29.075Z,14.05
2023-05-05T04:48:30.652Z,14.08
2023-05-05T04:50:32.583Z,14.13
2023-05-05T04:52:34.286Z,14.16
2023-05-05T04:54:36.877Z,14.19
2023-05-05T04:56:38.432Z,14.25
2023-05-05T04:58:40.029Z,14.30
2023-05-05T05:00:41.769Z,14.40
2023-05-05T05:02:43.445Z,14.49
2023-05-05T05:04:45.046Z,14.56
2023-05-05T05:06:46.632Z,14.61
2023-05-05T05:08:48.188Z,14.64
2023-05-05T05:10:49.743Z,14.72
2023-05-05T05:12:51.810Z,14.74
2023-05-05T05:14:53.450Z,14.76
2023-05-05T05:16:55.090Z,14.79
2023-05-05T05:18:56.677Z,14.83
2023-05-05T05:20:58.260Z,14.86
2023-05-05T05:23:02.226Z,14.89
2023-05-05T05:25:03.965Z,14.91
2023-05-05T05:27:09.790Z,14.96
2023-05-05T05:29:11.777Z,15.03
2023-05-05T05:31:13.328Z,15.06
2023-05-05T05:33:15.045Z,15.14
2023-05-05T05:35:16.839Z,15.22
2023-05-05T05:37:18.412Z,15.25
2023-05-05T05:39:20.019Z,15.30
2023-05-05T05:41:21.680Z,15.36
2023-05-05T05:43:23.257Z,15.40
2023-05-05T05:45:24.835Z,15.46
2023-05-05T05:47:26.748Z,15.51
2023-05-05T05:49:28.292Z,15.58
2023-05-05T05:51:30.370Z,15.59
2023-05-05T05:53:31.978Z,15.66
2023-05-05T05:55:33.601Z,15.70
2023-05-05T05:57:35.250Z,15.74
2023-05-05T05:59:36.782Z,15.78
2023-05-05T06:01:38.393Z,15.85
2023-05-05T06:03:40.057Z,15.90
2023-05-05T06:05:41.735Z,15.98
2023-05-05T06:07:43.273Z,16.05
2023-05-05T06:09:44.893Z,16.13
2023-05-05T06:11:46.487Z,16.20
2023-05-05T06:13:48.078Z,16.26
2023-05-05T06:15:49.684Z,16.30
2023-05-05T06:17:51.519Z,16.36
2023-05-05T06:19:54.528Z,16.36
2023-05-05T06:21:56.256Z,16.41
2023-05-05T06:23:57.801Z,16.40
2023-05-05T06:25:59.346Z,16.40
2023-05-05T06:28:00.879Z,16.50
2023-05-05T06:30:02.581Z,16.51
2023-05-05T06:32:04.210Z,16.57
2023-05-05T06:34:05.835Z,16.55
2023-05-05T06:36:07.566Z,16.61
2023-05-05T06:38:09.810Z,16.65
2023-05-05T06:40:12.006Z,16.66
2023-05-05T06:42:13.524Z,16.73
2023-05-05T06:44:15.079Z,16.72
2023-05-05T06:46:16.605Z,16.81
2023-05-05T06:48:18.584Z,16.84
2023-05-05T06:50:20.253Z,16.78
2023-05-05T06:52:22.967Z,16.85
2023-05-05T06:54:24.527Z,17.04
2023-05-05T06:56:26.137Z,17.18
2023-05-05T06:58:27.740Z,17.19
2023-05-05T07:00:29.372Z,17.23
2023-05-05T07:02:31.537Z,17.32
2023-05-05T07:04:33.062Z,17.34
2023-05-05T07:06:34.718Z,17.29
2023-05-05T07:08:36.279Z,17.24
2023-05-05T07:10:38.275Z,17.30
2023-05-05T07:12:39.869Z,17.44
2023-05-05T07:14:41.354Z,17.40
2023-05-05T07:16:42.918Z,17.48
2023-05-05T07:18:44.545Z,17.54
2023-05-05T07:20:46.178Z,17.62
2023-05-05T07:22:47.721Z,17.76
2023-05-05T07:24:49.821Z,17.84
2023-05-05T07:26:52.891Z,17.89
2023-05-05T07:28:57.236Z,17.89
2023-05-05T07:30:58.735Z,17.98
2023-05-05T07:33:00.402Z,18.16
2023-05-05T07:35:02.062Z,18.34
2023-05-05T07:37:07.117Z,18.35
2023-05-05T07:39:08.659Z,18.42
2023-05-05T07:41:11.695Z,18.67
2023-05-05T07:43:13.281Z,18.72
2023-05-05T07:45:14.948Z,18.80
2023-05-05T07:47:16.520Z,18.83
2023-05-05T07:49:18.277Z,18.83
2023-05-05T07:51:19.821Z,18.81
2023-05-05T07:53:21.506Z,18.90
2023-05-05T07:55:23.166Z,18.99
2023-05-05T07:57:24.772Z,18.86
2023-05-05T07:59:26.343Z,18.77
2023-05-05T08:01:27.907Z,18.83
2023-05-05T08:03:29.615Z,18.76
2023-05-05T08:05:31.361Z,18.85
2023-05-05T08:07:33.035Z,18.99
2023-05-05T08:09:35.829Z,19.05
2023-05-05T08:11:37.737Z,19.00
2023-05-05T08:13:39.251Z,18.92
2023-05-05T08:15:40.889Z,19.04
2023-05-05T08:17:51.649Z,19.01
2023-05-05T08:19:53.364Z,19.32
2023-05-05T08:21:56.074Z,19.02
2023-05-05T08:23:57.713Z,18.92
2023-05-05T08:25:59.366Z,19.14
2023-05-05T08:28:01.154Z,19.24
2023-05-05T08:30:04.103Z,19.48
2023-05-05T08:32:05.943Z,19.49
2023-05-05T08:34:07.565Z,19.52
2023-05-05T08:36:09.205Z,19.60
2023-05-05T08:38:12.019Z,19.52
2023-05-05T08:40:14.332Z,19.54
2023-05-05T08:42:29.070Z,19.46
2023-05-05T08:44:37.688Z,19.47
2023-05-05T08:46:40.066Z,19.50
2023-05-05T08:48:45.056Z,19.52
2023-05-05T08:50:51.527Z,19.46
2023-05-05T08:53:15.718Z,19.07
2023-05-05T08:55:20.079Z,19.08
2023-05-05T08:57:32.434Z,19.43
2023-05-05T08:59:39.303Z,19.43
2023-05-05T09:01:42.822Z,19.64
2023-05-05T09:03:47.560Z,19.42
2023-05-05T09:05:51.135Z,19.57
2023-05-05T09:07:52.717Z,19.67
2023-05-05T09:09:54.329Z,19.69
2023-05-05T09:11:58.117Z,19.63
2023-05-05T09:13:59.728Z,19.55
2023-05-05T09:16:01.565Z,19.80
2023-05-05T09:18:05.239Z,19.83
2023-05-05T09:20:11.724Z,19.86
2023-05-05T09:22:13.266Z,19.85
2023-05-05T09:24:15.706Z,19.90
2023-05-05T09:26:17.351Z,19.89
2023-05-05T09:28:19.129Z,19.95
2023-05-05T09:30:25.314Z,19.95
2023-05-05T09:32:28.648Z,20.25
2023-05-05T09:34:35.189Z,20.29
2023-05-05T09:36:48.011Z,20.28
2023-05-05T09:39:03.959Z,20.36
2023-05-05T09:41:06.515Z,20.36
2023-05-05T09:43:08.155Z,20.40
2023-05-05T09:45:18.682Z,20.48
2023-05-05T09:47:29.290Z,20.50
2023-05-05T09:49:31.636Z,20.77
2023-05-05T09:51:33.311Z,20.68
2023-05-05T09:53:40.342Z,20.27
2023-05-05T09:55:51.955Z,20.04
2023-05-05T09:57:53.550Z,20.04
2023-05-05T10:00:02.578Z,20.03
2023-05-05T10:02:13.733Z,20.10
2023-05-05T10:04:29.975Z,20.11
2023-05-05T10:06:44.706Z,20.30
2023-05-05T10:09:01.237Z,20.31
2023-05-05T10:11:07.348Z,20.25
2023-05-05T10:13:10.686Z,20.11
2023-05-05T10:15:13.983Z,20.22
2023-05-05T10:17:16.179Z,20.22
2023-05-05T10:19:22.961Z,20.35
2023-05-05T10:21:25.551Z,20.46
2023-05-05T10:23:41.628Z,20.38
2023-05-05T10:25:50.785Z,20.33
2023-05-05T10:27:55.630Z,20.10
2023-05-05T10:30:07.697Z,20.19
2023-05-05T10:34:54.414Z,20.35
2023-05-05T10:36:57.752Z,20.31
2023-05-05T10:39:00.153Z,20.26
2023-05-05T10:41:04.984Z,19.94
2023-05-05T10:43:07.568Z,20.02
2023-05-05T10:45:09.637Z,20.21
2023-05-05T10:47:12.341Z,20.37
2023-05-05T10:49:28.004Z,20.43
2023-05-05T10:51:41.051Z,20.98
2023-05-05T10:53:54.335Z,20.79
2023-05-05T10:56:14.417Z,20.52
2023-05-05T10:58:55.594Z,21.17
2023-05-05T11:01:00.601Z,21.38
2023-05-05T11:03:17.726Z,21.46
2023-05-05T11:05:21.594Z,21.44
2023-05-05T11:07:24.068Z,21.05
2023-05-05T11:09:29.278Z,21.57
2023-05-05T11:12:02.766Z,21.74
2023-05-05T11:14:21.255Z,21.61
2023-05-05T11:16:48.211Z,21.79
2023-05-05T11:18:49.990Z,22.00
2023-05-05T11:20:57.602Z,22.18
2023-05-05T11:23:05.359Z,22.05
2023-05-05T11:25:35.426Z,22.31
2023-05-05T11:28:11.482Z,22.32
2023-05-05T11:30:13.587Z,22.28
2023-05-05T11:32:19.978Z,22.26
2023-05-05T11:34:29.020Z,22.08
2023-05-05T11:36:40.915Z,22.00
2023-05-05T11:39:05.722Z,22.13
2023-05-05T11:41:10.068Z,22.30
2023-05-05T11:43:11.629Z,22.18
2023-05-05T11:45:21.748Z,22.32
2023-05-05T11:47:23.230Z,21.95
2023-05-05T11:49:35.813Z,21.90
2023-05-05T11:51:37.707Z,21.94
2023-05-05T11:53:47.359Z,22.05
2023-05-05T11:55:48.964Z,22.05
2023-05-05T11:57:50.905Z,22.02
2023-05-05T11:59:57.307Z,22.03
2023-05-05T12:01:59.456Z,21.74
2023-05-05T12:04:01.278Z,21.91
2023-05-05T12:06:04.302Z,21.92
2023-05-05T12:08:06.633Z,21.70
2023-05-05T12:10:08.761Z,21.64
2023-05-05T12:12:10.525Z,21.82
2023-05-05T12:14:12.104Z,21.75
2023-05-05T12:16:15.610Z,21.81
2023-05-05T12:18:21.104Z,21.49
2023-05-05T12:20:33.295Z,21.66
2023-05-05T12:22:35.541Z,21.62
2023-05-05T12:24:37.169Z,21.66
2023-05-05T12:26:38.743Z,21.51
2023-05-05T12:28:47.767Z,21.45
2023-05-05T12:30:59.492Z,21.41
2023-05-05T12:33:05.868Z,21.34
2023-05-05T12:35:08.625Z,21.27
2023-05-05T12:37:10.604Z,21.11
2023-05-05T12:39:12.290Z,21.05
2023-05-05T12:41:19.376Z,20.95
2023-05-05T12:43:32.141Z,20.69
2023-05-05T12:45:33.629Z,20.64
2023-05-05T12:47:36.881Z,20.57
2023-05-05T12:49:51.773Z,20.33
2023-05-05T12:51:55.765Z,20.05
2023-05-05T12:54:10.289Z,20.06
2023-05-05T12:56:30.621Z,19.90
2023-05-05T12:58:48.621Z,19.35
2023-05-05T13:01:08.630Z,19.55
2023-05-05T13:03:19.926Z,19.35
2023-05-05T13:05:36.277Z,19.23
2023-05-05T13:07:51.060Z,18.91
2023-05-05T13:10:07.145Z,18.70
2023-05-05T13:12:11.580Z,18.62
2023-05-05T13:14:13.136Z,18.51
2023-05-05T13:16:14.784Z,18.28
2023-05-05T13:18:16.365Z,18.15
2023-05-05T13:20:18.044Z,17.96
2023-05-05T13:22:19.576Z,17.87
2023-05-05T13:24:28.586Z,17.89
2023-05-05T13:26:36.318Z,17.62
2023-05-05T13:28:38.263Z,17.55
2023-05-05T13:30:41.847Z,17.49
2023-05-05T13:32:43.388Z,17.40
2023-05-05T13:34:44.903Z,17.08
2023-05-05T13:36:46.472Z,17.27
2023-05-05T13:38:47.998Z,17.31
2023-05-05T13:40:49.503Z,17.26
2023-05-05T13:42:51.036Z,17.37
2023-05-05T13:44:52.661Z,17.53
2023-05-05T13:46:54.422Z,17.73
2023-05-05T13:48:56.899Z,17.90
2023-05-05T13:50:58.614Z,17.91
2023-05-05T13:53:00.160Z,17.94
2023-05-05T13:55:01.822Z,17.91
2023-05-05T13:57:03.543Z,18.10
2023-05-05T13:59:05.051Z,18.25
2023-05-05T14:01:06.595Z,18.41
2023-05-05T14:03:08.142Z,18.57
2023-05-05T14:05:10.265Z,18.62
2023-05-05T14:07:11.995Z,18.84
2023-05-05T14:09:13.565Z,18.81
2023-05-05T14:11:17.147Z,18.84
2023-05-05T14:13:18.879Z,18.80
2023-05-05T14:15:20.592Z,18.97
2023-05-05T14:17:22.131Z,18.95
2023-05-05T14:19:23.637Z,18.91
2023-05-05T14:21:25.241Z,19.10
2023-05-05T14:23:26.791Z,19.17
2023-05-05T14:25:28.315Z,19.20
2023-05-05T14:27:29.985Z,19.26
2023-05-05T14:29:31.599Z,19.15
2023-05-05T14:31:33.165Z,19.03
2023-05-05T14:33:34.749Z,18.91
2023-05-05T14:35:36.333Z,18.86
2023-05-05T14:37:37.914Z,18.86
2023-05-05T14:39:39.413Z,18.82
2023-05-05T14:41:40.983Z,18.71
2023-05-05T14:43:42.577Z,18.75
2023-05-05T14:45:44.404Z,18.68
2023-05-05T14:47:46.060Z,18.62
2023-05-05T14:49:47.588Z,18.68
2023-05-05T14:51:49.375Z,18.68
2023-05-05T14:53:51.037Z,18.72
2023-05-05T14:55:52.590Z,18.68
2023-05-05T14:57:54.142Z,18.65
2023-05-05T14:59:55.848Z,18.53
2023-05-05T15:01:57.421Z,18.55
2023-05-05T15:03:59.165Z,18.64
2023-05-05T15:06:00.913Z,18.67
2023-05-05T15:08:02.458Z,18.70
2023-05-05T15:10:04.790Z,18.72
2023-05-05T15:12:06.681Z,18.63
2023-05-05T15:14:08.236Z,18.61
2023-05-05T15:16:09.961Z,18.57
2023-05-05T15:18:11.734Z,18.51
2023-05-05T15:20:13.286Z,18.45
2023-05-05T15:22:14.902Z,18.29
2023-05-05T15:24:16.540Z,18.34
2023-05-05T15:26:18.091Z,18.11
2023-05-05T15:28:19.741Z,18.22
2023-05-05T15:30:21.276Z,18.07
2023-05-05T15:32:22.884Z,18.18
2023-05-05T15:34:24.477Z,18.25
2023-05-05T15:36:26.052Z,18.36
2023-05-05T15:38:29.077Z,18.53
2023-05-05T15:40:30.675Z,18.48
2023-05-05T15:42:33.412Z,18.37
2023-05-05T15:44:36.446Z,18.42
2023-05-05T15:46:37.987Z,18.24
2023-05-05T15:48:39.516Z,17.82
2023-05-05T15:50:41.138Z,17.46
2023-05-05T15:52:42.955Z,17.17
2023-05-05T15:54:44.546Z,17.22
2023-05-05T15:56:46.124Z,17.03
2023-05-05T15:58:47.664Z,16.46
2023-05-05T16:00:49.272Z,16.32
2023-05-05T16:02:51.136Z,15.75
2023-05-05T16:04:53.475Z,15.30
2023-05-05T16:06:55.465Z,15.49
2023-05-05T16:08:58.577Z,15.41
2023-05-05T16:11:00.150Z,15.44
2023-05-05T16:13:01.667Z,15.07
2023-05-05T16:15:03.323Z,15.33
2023-05-05T16:17:04.903Z,15.33
2023-05-05T16:19:06.558Z,14.99
2023-05-05T16:21:08.428Z,15.10
2023-05-05T16:23:10.366Z,14.91
2023-05-05T16:25:11.904Z,14.71
2023-05-05T16:27:14.293Z,14.90
2023-05-05T16:29:16.566Z,14.64
2023-05-05T16:31:18.125Z,14.63
2023-05-05T16:33:19.649Z,14.54
2023-05-05T16:35:23.007Z,14.62
2023-05-05T16:37:24.574Z,14.45
2023-05-05T16:39:26.410Z,14.49
2023-05-05T16:41:28.051Z,14.52
2023-05-05T16:43:29.675Z,14.58
2023-05-05T16:45:31.787Z,14.58
2023-05-05T16:47:33.331Z,14.36
2023-05-05T16:49:34.954Z,14.48
2023-05-05T16:51:36.542Z,14.45
2023-05-05T16:53:38.344Z,14.44
2023-05-05T16:55:42.249Z,14.35
2023-05-05T16:57:43.789Z,14.39
2023-05-05T16:59:45.330Z,14.45
2023-05-05T17:01:47.027Z,14.37
2023-05-05T17:03:48.700Z,14.36
2023-05-05T17:05:52.842Z,14.39
2023-05-05T17:07:54.611Z,14.35
2023-05-05T17:09:56.399Z,14.39
2023-05-05T17:11:58.405Z,14.36
2023-05-05T17:13:59.929Z,14.32
2023-05-05T17:16:01.458Z,14.27
2023-05-05T17:18:04.885Z,14.21
2023-05-05T17:20:07.774Z,14.27
2023-05-05T17:22:09.270Z,14.32
2023-05-05T17:24:11.434Z,14.27
2023-05-05T17:26:13.163Z,14.10
2023-05-05T17:28:15.786Z,14.20
2023-05-05T17:30:18.620Z,14.21
2023-05-05T17:32:20.125Z,14.25
2023-05-05T17:34:22.040Z,14.25
2023-05-05T17:36:23.967Z,14.24
2023-05-05T17:38:25.783Z,14.29
2023-05-05T17:40:27.334Z,14.29
2023-05-05T17:42:32.946Z,14.27
2023-05-05T17:44:34.464Z,14.26
2023-05-05T17:46:36.444Z,14.23
2023-05-05T17:48:38.067Z,14.23
2023-05-05T17:50:41.298Z,14.18
2023-05-05T17:52:45.154Z,14.17
2023-05-05T17:54:47.630Z,14.24
2023-05-05T17:56:49.153Z,14.28
2023-05-05T17:58:50.753Z,14.27
2023-05-05T18:00:52.474Z,14.35
2023-05-05T18:02:54.319Z,14.30
2023-05-05T18:04:56.203Z,14.28
2023-05-05T18:06:57.920Z,14.23
2023-05-05T18:08:59.625Z,14.23
2023-05-05T18:11:01.926Z,14.21
2023-05-05T18:13:03.654Z,14.17
2023-05-05T18:15:05.935Z,14.16
2023-05-05T18:17:07.621Z,14.16
2023-05-05T18:19:09.108Z,14.13
2023-05-05T18:21:12.350Z,14.14
2023-05-05T18:23:13.983Z,14.12
2023-05-05T18:25:15.505Z,14.10
2023-05-05T18:27:17.133Z,14.09
2023-05-05T18:29:21.482Z,14.03
2023-05-05T18:31:23.034Z,14.06
2023-05-05T18:33:24.636Z,14.04
2023-05-05T18:35:26.881Z,14.03
2023-05-05T18:37:28.418Z,14.01
2023-05-05T18:39:30.313Z,13.99
2023-05-05T18:41:32.234Z,13.95
2023-05-05T18:43:33.818Z,13.95
2023-05-05T18:45:35.387Z,13.86
2023-05-05T18:47:40.001Z,13.80
2023-05-05T18:49:41.553Z,13.75
2023-05-05T18:51:43.822Z,13.72
2023-05-05T18:53:45.435Z,13.69
2023-05-05T18:55:47.179Z,13.65
2023-05-05T18:57:48.735Z,13.68
2023-05-05T18:59:50.275Z,13.63
2023-05-05T19:01:52.724Z,13.57
2023-05-05T19:03:54.335Z,13.56
2023-05-05T19:05:56.736Z,13.51
2023-05-05T19:07:58.894Z,13.47
2023-05-05T19:10:00.652Z,13.42
2023-05-05T19:12:02.962Z,13.39
2023-05-05T19:14:04.490Z,13.38
2023-05-05T19:16:06.103Z,13.35
2023-05-05T19:18:07.700Z,13.32
2023-05-05T19:20:09.702Z,13.26
2023-05-05T19:22:11.357Z,13.22
2023-05-05T19:24:12.853Z,13.20
2023-05-05T19:26:15.178Z,13.18
2023-05-05T19:28:16.800Z,13.10
2023-05-05T19:30:18.327Z,13.08
2023-05-05T19:32:21.251Z,13.05
2023-05-05T19:34:23.110Z,12.98
2023-05-05T19:36:25.355Z,12.99
2023-05-05T19:38:26.918Z,13.00
2023-05-05T19:40:28.783Z,12.96
2023-05-05T19:42:30.451Z,12.89
2023-05-05T19:44:31.984Z,12.87
2023-05-05T19:46:33.714Z,12.84
2023-05-05T19:48:35.314Z,12.82
2023-05-05T19:50:36.945Z,12.79
2023-05-05T19:52:41.307Z,12.79
2023-05-05T19:54:43.491Z,12.79
2023-05-05T19:56:45.109Z,12.76
2023-05-05T19:58:53.570Z,12.75
2023-05-05T20:00:55.065Z,12.75
2023-05-05T20:02:56.732Z,12.67
2023-05-05T20:04:58.345Z,12.65
2023-05-05T20:06:59.905Z,12.65
2023-05-05T20:09:02.074Z,12.59
2023-05-05T20:11:03.628Z,12.56
2023-05-05T20:13:05.196Z,12.52
2023-05-05T20:15:07.467Z,12.50
2023-05-05T20:17:09.048Z,12.46
2023-05-05T20:19:10.742Z,12.44
2023-05-05T20:21:12.490Z,12.41
2023-05-05T20:23:14.038Z,12.38
2023-05-05T20:25:18.826Z,12.36
2023-05-05T20:27:21.486Z,12.34
2023-05-05T20:29:23.148Z,12.35
2023-05-05T20:31:24.704Z,12.36
2023-05-05T20:33:26.992Z,12.32
2023-05-05T20:35:28.469Z,12.37
2023-05-05T20:37:30.045Z,12.35
2023-05-05T20:39:31.588Z,12.30
2023-05-05T20:41:33.186Z,12.26
2023-05-05T20:43:36.292Z,12.20
2023-05-05T20:45:38.020Z,12.11
2023-05-05T20:47:39.959Z,12.11
2023-05-05T20:49:41.528Z,12.11
2023-05-05T20:51:43.086Z,12.10
2023-05-05T20:53:44.674Z,12.07
2023-05-05T20:55:46.408Z,12.00
2023-05-05T20:57:48.131Z,11.93
2023-05-05T20:59:49.669Z,11.87
2023-05-05T21:01:51.428Z,11.80
2023-05-05T21:03:52.972Z,11.76
2023-05-05T21:05:54.706Z,11.77
2023-05-05T21:07:57.809Z,11.78
2023-05-05T21:10:01.319Z,11.76
2023-05-05T21:12:03.358Z,11.73
2023-05-05T21:14:05.546Z,11.73
2023-05-05T21:16:07.186Z,11.72
2023-05-05T21:18:08.896Z,11.66
2023-05-05T21:20:11.338Z,11.61
2023-05-05T21:22:13.171Z,11.59
2023-05-05T21:24:14.815Z,11.57
2023-05-05T21:26:16.379Z,11.48
2023-05-05T21:28:17.896Z,11.45
2023-05-05T21:30:19.465Z,11.48
2023-05-05T21:32:21.080Z,11.49
2023-05-05T21:34:22.668Z,11.51
2023-05-05T21:36:24.818Z,11.56
2023-05-05T21:38:26.354Z,11.60
2023-05-05T21:40:27.937Z,11.61
2023-05-05T21:42:30.693Z,11.59
2023-05-05T21:44:32.625Z,11.61
2023-05-05T21:46:34.208Z,11.58
2023-05-05T21:48:38.847Z,11.53
2023-05-05T21:50:40.597Z,11.53
2023-05-05T21:52:42.154Z,11.58
2023-05-05T21:54:43.697Z,11.58
2023-05-05T21:56:45.219Z,11.59
2023-05-05T21:58:46.836Z,11.61
2023-05-05T22:00:51.372Z,11.49
2023-05-05T22:02:53.024Z,11.55
2023-05-05T22:04:54.723Z,11.52
2023-05-05T22:06:56.494Z,11.48
2023-05-05T22:08:58.083Z,11.47
2023-05-05T22:10:59.636Z,11.45
2023-05-05T22:13:01.200Z,11.49
2023-05-05T22:15:02.909Z,11.46
2023-05-05T22:17:04.495Z,11.44
2023-05-05T22:19:06.829Z,11.43
2023-05-05T22:21:08.448Z,11.41
2023-05-05T22:23:09.952Z,11.39
2023-05-05T22:25:11.739Z,11.36
2023-05-05T22:27:13.514Z,11.27
2023-05-05T22:29:15.040Z,11.28
2023-05-05T22:31:16.862Z,11.31
2023-05-05T22:33:18.409Z,11.33
2023-05-05T22:35:20.171Z,11.36
2023-05-05T22:37:21.887Z,11.35
2023-05-05T22:39:23.811Z,11.36
2023-05-05T22:41:25.682Z,11.34
2023-05-05T22:43:27.201Z,11.35
2023-05-05T22:45:28.825Z,11.36
2023-05-05T22:47:31.233Z,11.37
2023-05-05T22:49:32.945Z,11.33
2023-05-05T22:51:34.681Z,11.34
2023-05-05T22:53:36.249Z,11.30
2023-05-05T22:55:37.824Z,11.32
2023-05-05T22:57:39.620Z,11.30
2023-05-05T22:59:41.298Z,11.31
2023-05-05T23:01:42.991Z,11.32
2023-05-05T23:03:44.573Z,11.31
2023-05-05T23:05:46.211Z,11.28
2023-05-05T23:07:47.774Z,11.17
2023-05-05T23:09:49.302Z,11.15
2023-05-05T23:11:50.872Z,11.16
2023-05-05T23:13:52.399Z,11.25
2023-05-05T23:15:54.021Z,11.16
2023-05-05T23:17:55.639Z,11.11
2023-05-05T23:19:57.220Z,11.13
2023-05-05T23:21:59.627Z,11.20
2023-05-05T23:24:01.183Z,11.26
2023-05-05T23:26:02.764Z,11.23
2023-05-05T23:28:04.394Z,11.23
2023-05-05T23:30:08.209Z,11.24
2023-05-05T23:32:09.784Z,11.27
2023-05-05T23:34:11.365Z,11.26
2023-05-05T23:36:13.046Z,11.18
2023-05-05T23:38:14.643Z,11.26
2023-05-05T23:40:16.279Z,11.29
2023-05-05T23:44:27.563Z,11.31
2023-05-05T23:46:29.407Z,11.32
2023-05-05T23:48:30.923Z,11.34
2023-05-05T23:50:32.300Z,11.32
2023-05-05T23:52:33.813Z,11.33
2023-05-05T23:54:35.471Z,11.31
2023-05-05T23:56:37.502Z,11.35
2023-05-05T23:58:39.146Z,11.35
